Time;durP1;ratioP1;P1;durP2;ratioP2;P2;SDS_P1;SDS_P2;PMS_P1;PMS_P2;Temp;Humidity;BMP_temperature;BMP_pressure;BME280_temperature;BME280_humidity;BME280_pressure;Samples;Min_cycle;Max_cycle;Signal;HPM_P1;HPM_P2
2023/02/21 02:14:19;;;;;;;;;;;;;;;3.17;100.00;98298.98;1679559;85;20671;-82
2023/02/21 02:17:16;;;;;;;;;;;;;;;3.16;100.00;98296.80;1693375;84;20217;-82
2023/02/21 02:20:47;;;;;;;;;;;;;;;3.37;100.00;98295.30;1716325;83;20193;-82
2023/02/21 02:23:56;;;;;;;;;;;;;;;3.45;100.00;98291.20;1727678;83;20292;-82
2023/02/21 02:27:15;;;;;;;;;;;;;;;3.45;100.00;98281.23;1724120;83;20594;-83
2023/02/21 02:30:42;;;;;;;;;;;;;;;3.49;100.00;98269.55;1722599;83;20231;-81
2023/02/21 02:33:54;;;;;;;;;;;;;;;3.49;100.00;98262.28;1720871;83;20482;-82
2023/02/21 02:37:12;;;;;;;;;;;;;;;3.59;100.00;98241.23;1702869;84;20221;-82
2023/02/21 02:40:19;;;;;;;;;;;;;;;3.42;100.00;98248.30;1701730;84;20185;-81
2023/02/21 02:43:30;;;;;;;;;;;;;;;3.41;100.00;98234.47;1701973;84;20209;-83
2023/02/21 02:46:37;;;;;;;;;;;;;;;3.43;100.00;98245.92;1701693;83;20225;-82
2023/02/21 02:49:44;;;;;;;;;;;;;;;3.51;100.00;98242.66;1708539;83;20236;-83
2023/02/21 02:53:00;;;;;;;;;;;;;;;3.72;100.00;98236.58;1717172;83;20204;-82
2023/02/21 02:56:08;;;;;;;;;;;;;;;3.87;100.00;98221.72;1718085;83;20223;-82
2023/02/21 02:59:16;;;;;;;;;;;;;;;3.96;100.00;98223.84;1717280;83;20235;-82
2023/02/21 03:02:35;;;;;;;;;;;;;;;3.93;100.00;98210.67;1716684;83;20248;-82
2023/02/21 03:06:03;;;;;;;;;;;;;;;3.98;100.00;98198.78;1705147;83;20217;-82
2023/02/21 03:09:21;;;;;;;;;;;;;;;3.70;100.00;98195.34;1703464;84;20228;-81
2023/02/21 03:12:44;;;;;;;;;;;;;;;3.79;100.00;98198.29;1703422;84;20192;-84
2023/02/21 03:16:02;;;;;;;;;;;;;;;3.89;100.00;98194.48;1704210;84;20200;-81
2023/02/21 03:19:24;;;;;;;;;;;;;;;3.79;100.00;98184.77;1703509;84;20201;-80
2023/02/21 03:22:30;;;;;;;;;;;;;;;3.83;100.00;98173.91;1703987;84;20333;-80
2023/02/21 03:25:34;;;;;;;;;;;;;;;3.88;100.00;98172.52;1704386;84;20196;-83
2023/02/21 03:28:39;;;;;;;;;;;;;;;3.88;100.00;98169.30;1704434;84;20208;-84
2023/02/21 03:31:46;;;;;;;;;;;;;;;3.89;100.00;98166.08;1704454;83;20197;-79
2023/02/21 03:34:51;;;;;;;;;;;;;;;4.09;100.00;98163.13;1704041;84;20604;-80
2023/02/21 03:37:58;;;;;;;;;;;;;;;3.84;100.00;98170.69;1704468;84;20185;-81
2023/02/21 03:41:02;;;;;;;;;;;;;;;3.96;100.00;98177.33;1704373;84;20199;-80
2023/02/21 03:44:06;;;;;;;;;;;;;;;3.90;100.00;98171.81;1703813;84;20232;-79
2023/02/21 03:47:11;;;;;;;;;;;;;;;3.96;100.00;98157.56;1704332;84;20239;-85
2023/02/21 03:50:16;;;;;;;;;;;;;;;4.02;100.00;98162.22;1703759;84;20180;-78
2023/02/21 03:53:20;;;;;;;;;;;;;;;4.16;100.00;98157.31;1702937;84;20228;-79
2023/02/21 03:56:24;;;;;;;;;;;;;;;4.16;100.00;98157.31;1703427;84;20221;-80
2023/02/21 03:59:35;;;;;;;;;;;;;;;4.27;99.68;98150.58;1703733;84;20584;-86
2023/02/21 04:02:39;;;;;;;;;;;;;;;4.38;98.88;98148.76;1704154;84;20241;-79
2023/02/21 04:05:44;;;;;;;;;;;;;;;4.40;98.77;98149.39;1702766;84;20189;-79
2023/02/21 04:08:49;;;;;;;;;;;;;;;4.46;98.12;98146.44;1679382;84;20285;-79
2023/02/21 04:11:54;;;;;;;;;;;;;;;4.56;97.96;98146.97;1704217;84;20197;-85
2023/02/21 04:15:01;;;;;;;;;;;;;;;4.50;98.17;98139.09;1702786;84;20632;-85
2023/02/21 04:17:59;;;;;;;;;;;;;;;4.41;98.15;98142.11;1703773;83;20177;-78
2023/02/21 04:20:52;;;;;;;;;;;;;;;4.10;99.50;98136.43;1704197;84;20225;-83
2023/02/21 04:23:38;;;;;;;;;;;;;;;4.08;100.00;98128.48;1703581;84;20223;-84
2023/02/21 04:26:31;;;;;;;;;;;;;;;4.16;100.00;98119.43;1704167;84;20204;-81
2023/02/21 04:29:17;;;;;;;;;;;;;;;4.34;99.67;98114.45;1703331;84;20253;-86
2023/02/21 04:32:09;;;;;;;;;;;;;;;4.35;98.89;98116.13;1704273;84;20208;-78
2023/02/21 04:34:54;;;;;;;;;;;;;;;4.22;99.34;98111.06;1702829;84;20220;-77
2023/02/21 04:37:47;;;;;;;;;;;;;;;4.32;98.84;98111.60;1704124;84;20201;-78
2023/02/21 04:40:34;;;;;;;;;;;;;;;4.28;98.88;98110.30;1704160;84;20212;-82
2023/02/21 04:43:26;;;;;;;;;;;;;;;4.45;97.90;98106.86;1703966;84;20208;-79
2023/02/21 04:46:14;;;;;;;;;;;;;;;4.54;97.56;98105.72;1703328;84;20200;-77
2023/02/21 04:49:19;;;;;;;;;;;;;;;4.69;96.47;98092.96;1704798;83;20208;-78
2023/02/21 04:52:23;;;;;;;;;;;;;;;4.73;95.89;98092.06;1704890;84;20201;-78
2023/02/21 04:55:28;;;;;;;;;;;;;;;4.76;95.65;98093.88;1703095;84;20208;-85
2023/02/21 04:58:32;;;;;;;;;;;;;;;4.82;95.35;98084.14;1704512;84;20655;-84
2023/02/21 05:01:39;;;;;;;;;;;;;;;4.91;94.79;98092.98;1704645;84;20627;-82
2023/02/21 05:04:43;;;;;;;;;;;;;;;4.94;93.89;98091.22;1703688;83;20201;-86
2023/02/21 05:07:48;;;;;;;;;;;;;;;4.94;93.26;98088.02;1704739;84;20225;-85
2023/02/21 05:10:53;;;;;;;;;;;;;;;4.93;92.53;98093.09;1704806;84;20204;-86
2023/02/21 05:13:58;;;;;;;;;;;;;;;4.84;92.41;98086.95;1704044;84;20216;-77
2023/02/21 05:17:04;;;;;;;;;;;;;;;4.93;92.18;98086.31;1704639;84;20197;-79
2023/02/21 05:20:10;;;;;;;;;;;;;;;4.98;91.69;98077.08;1704554;83;20192;-85
2023/02/21 05:23:15;;;;;;;;;;;;;;;5.04;91.25;98076.84;1704892;84;20197;-78
2023/02/21 05:26:19;;;;;;;;;;;;;;;5.09;91.08;98079.28;1704894;84;20200;-77
2023/02/21 05:29:23;;;;;;;;;;;;;;;5.08;90.69;98076.27;1704687;84;20611;-77
2023/02/21 05:32:28;;;;;;;;;;;;;;;4.95;91.11;98078.84;1704623;84;20196;-77
2023/02/21 05:35:32;;;;;;;;;;;;;;;5.13;90.65;98090.58;1733130;83;20624;-78
2023/02/21 05:38:36;;;;;;;;;;;;;;;5.18;90.41;98083.22;1727115;83;20226;-77
2023/02/21 05:41:40;;;;;;;;;;;;;;;5.25;90.08;98074.09;1740184;82;20621;-78
2023/02/21 05:44:44;;;;;;;;;;;;;;;5.32;89.84;98066.86;1727395;82;20219;-77
2023/02/21 05:47:48;;;;;;;;;;;;;;;5.20;89.82;98076.55;1734152;81;20250;-78
2023/02/21 05:50:52;;;;;;;;;;;;;;;5.22;90.12;98079.05;1730053;81;20619;-77
2023/02/21 05:53:56;;;;;;;;;;;;;;;5.25;90.15;98083.58;1732967;81;20589;-78
2023/02/21 05:57:00;;;;;;;;;;;;;;;5.26;89.93;98080.34;1729268;81;20192;-80
2023/02/21 06:00:04;;;;;;;;;;;;;;;5.30;89.78;98067.55;1733720;81;20193;-78
2023/02/21 06:03:10;;;;;;;;;;;;;;;5.30;90.11;98085.17;1730654;81;20189;-84
2023/02/21 06:06:15;;;;;;;;;;;;;;;5.52;89.76;98098.69;1736799;81;20193;-78
2023/02/21 06:09:20;;;;;;;;;;;;;;;5.60;89.41;98090.41;1730385;81;20211;-84
2023/02/21 06:12:25;;;;;;;;;;;;;;;5.59;89.72;98103.11;1721621;81;20194;-84
2023/02/21 06:15:24;;;;;;;;;;;;;;;5.61;90.20;98114.61;1719923;81;20610;-85
2023/02/21 06:18:28;;;;;;;;;;;;;;;5.53;90.89;98124.77;1718478;81;20260;-84
2023/02/21 06:21:34;;;;;;;;;;;;;;;5.52;91.69;98117.67;1732576;81;20220;-77
2023/02/21 06:24:38;;;;;;;;;;;;;;;5.41;92.94;98131.27;1734536;81;20245;-85
2023/02/21 06:27:43;;;;;;;;;;;;;;;5.37;94.07;98132.16;1720898;81;20232;-79
2023/02/21 06:30:48;;;;;;;;;;;;;;;5.38;94.05;98134.36;1720010;81;20200;-84
2023/02/21 06:33:55;;;;;;;;;;;;;;;5.16;93.64;98115.08;1724263;81;20181;-84
2023/02/21 06:37:01;;;;;;;;;;;;;;;5.07;93.72;98129.28;1722621;81;20853;-83
2023/02/21 06:40:04;;;;;;;;;;;;;;;5.14;93.14;98127.48;1722195;83;20235;-79
2023/02/21 06:43:09;;;;;;;;;;;;;;;5.07;92.81;98117.08;1728788;81;20194;-84
2023/02/21 06:46:14;;;;;;;;;;;;;;;5.03;92.75;98099.53;1728799;81;20217;-84
2023/02/21 06:49:19;;;;;;;;;;;;;;;5.05;93.09;98105.09;1727145;81;20189;-82
2023/02/21 06:52:24;;;;;;;;;;;;;;;5.02;92.79;98096.51;1748274;81;20233;-81
2023/02/21 06:55:29;;;;;;;;;;;;;;;4.96;92.84;98093.23;1729782;81;20185;-81
2023/02/21 06:58:34;;;;;;;;;;;;;;;4.92;92.69;98093.30;1733448;81;20659;-81
2023/02/21 07:01:40;;;;;;;;;;;;;;;4.93;92.79;98101.73;1728961;83;20220;-82
2023/02/21 07:04:39;;;;;;;;;;;;;;;4.82;93.60;98108.52;1740596;81;20189;-79
2023/02/21 07:07:42;;;;;;;;;;;;;;;4.75;94.26;98122.00;1730510;81;20228;-79
2023/02/21 07:10:48;;;;;;;;;;;;;;;4.71;94.92;98115.29;1725304;83;20208;-79
2023/02/21 07:13:59;;;;;;;;;;;;;;;4.76;95.27;98099.30;1721878;83;20225;-79
2023/02/21 07:17:03;;;;;;;;;;;;;;;4.99;94.80;98096.40;1718097;83;20825;-81
2023/02/21 07:20:07;;;;;;;;;;;;;;;5.03;94.84;98091.41;1719788;83;20205;-82
2023/02/21 07:23:12;;;;;;;;;;;;;;;5.17;95.10;98090.48;1740143;81;20184;-81
2023/02/21 07:26:18;;;;;;;;;;;;;;;5.29;95.22;98088.92;1750722;81;20199;-80
2023/02/21 07:29:23;;;;;;;;;;;;;;;5.56;94.58;98083.70;1724189;82;20598;-80
2023/02/21 07:32:27;;;;;;;;;;;;;;;5.67;94.54;98089.92;1729486;82;20202;-82
2023/02/21 07:35:31;;;;;;;;;;;;;;;5.84;94.59;98100.78;1720456;81;20641;-82
2023/02/21 07:38:36;;;;;;;;;;;;;;;5.97;93.92;98099.20;1728965;81;20515;-82
2023/02/21 07:41:39;;;;;;;;;;;;;;;5.99;93.67;98093.06;1731097;81;20264;-82
2023/02/21 07:44:44;;;;;;;;;;;;;;;6.10;93.08;98104.70;1727375;81;20620;-83
2023/02/21 07:47:42;;;;;;;;;;;;;;;6.04;93.54;98104.98;1721546;80;20207;-81
2023/02/21 07:50:50;;;;;;;;;;;;;;;6.19;93.59;98103.48;1726587;81;20253;-81
2023/02/21 07:53:55;;;;;;;;;;;;;;;6.30;93.15;98115.64;1729153;81;20660;-82
2023/02/21 07:56:58;;;;;;;;;;;;;;;6.53;92.60;98111.23;1729858;82;20192;-82
2023/02/21 08:00:03;;;;;;;;;;;;;;;6.47;93.04;98116.97;1727362;81;20260;-82
2023/02/21 08:03:08;;;;;;;;;;;;;;;6.55;92.94;98114.61;1726150;81;20231;-82
2023/02/21 08:06:12;;;;;;;;;;;;;;;6.69;92.39;98114.12;1730498;82;20246;-82
2023/02/21 08:09:16;;;;;;;;;;;;;;;6.62;93.14;98116.28;1728126;81;20616;-80
2023/02/21 08:12:20;;;;;;;;;;;;;;;6.83;92.89;98110.40;1723455;82;20661;-82
2023/02/21 08:15:24;;;;;;;;;;;;;;;6.90;92.98;98110.71;1712906;81;31844;-82
2023/02/21 08:18:29;;;;;;;;;;;;;;;7.03;92.83;98102.27;1683564;83;20207;-81
2023/02/21 08:21:32;;;;;;;;;;;;;;;7.05;92.14;98106.44;1680476;84;20207;-82
2023/02/21 08:24:36;;;;;;;;;;;;;;;7.17;91.75;98102.59;1676320;84;20267;-82
2023/02/21 08:27:40;;;;;;;;;;;;;;;7.28;91.16;98092.98;1676709;85;20194;-82
2023/02/21 08:30:44;;;;;;;;;;;;;;;7.50;90.24;98080.00;1680855;84;20206;-82
2023/02/21 08:33:50;;;;;;;;;;;;;;;7.75;86.78;98078.81;1674677;85;20613;-81
2023/02/21 08:36:54;;;;;;;;;;;;;;;7.71;85.90;98070.75;1704175;82;20182;-81
2023/02/21 08:39:58;;;;;;;;;;;;;;;7.85;84.01;98069.14;1677112;85;20241;-82
2023/02/21 08:43:04;;;;;;;;;;;;;;;7.98;83.87;98071.00;1672933;85;20250;-83
2023/02/21 08:46:08;;;;;;;;;;;;;;;8.02;82.82;98079.05;1678934;85;20227;-81
2023/02/21 08:49:13;;;;;;;;;;;;;;;8.08;81.03;98084.16;1674742;85;20329;-82
2023/02/21 08:52:18;;;;;;;;;;;;;;;8.28;80.80;98079.50;1676243;84;20266;-82
2023/02/21 08:55:23;;;;;;;;;;;;;;;8.41;78.59;98084.90;1674291;84;20222;-82
2023/02/21 08:58:27;;;;;;;;;;;;;;;8.47;78.60;98094.62;1678604;84;20241;-82
2023/02/21 09:01:39;;;;;;;;;;;;;;;8.54;75.93;98094.08;1675461;85;20249;-82
2023/02/21 09:04:43;;;;;;;;;;;;;;;8.58;75.37;98088.50;1673108;85;20658;-82
2023/02/21 09:07:47;;;;;;;;;;;;;;;8.65;75.07;98086.03;1676246;85;20533;-82
2023/02/21 09:10:52;;;;;;;;;;;;;;;8.87;74.54;98082.45;1679683;84;20218;-82
2023/02/21 09:13:56;;;;;;;;;;;;;;;9.05;72.40;98084.97;1676167;85;20255;-82
2023/02/21 09:17:00;;;;;;;;;;;;;;;9.37;71.48;98091.23;1669329;85;20192;-82
2023/02/21 09:20:05;;;;;;;;;;;;;;;9.45;71.22;98078.13;1677577;84;20218;-82
2023/02/21 09:23:09;;;;;;;;;;;;;;;9.66;69.91;98084.26;1683108;84;20231;-82
2023/02/21 09:26:14;;;;;;;;;;;;;;;9.76;71.05;98077.75;1678352;84;20197;-81
2023/02/21 09:29:21;;;;;;;;;;;;;;;9.88;68.69;98084.15;1673328;85;20625;-82
2023/02/21 09:32:28;;;;;;;;;;;;;;;9.96;69.14;98085.73;1676831;84;20187;-82
2023/02/21 09:35:32;;;;;;;;;;;;;;;9.96;68.18;98086.56;1675402;85;20217;-82
2023/02/21 09:38:40;;;;;;;;;;;;;;;9.96;66.20;98085.20;1674999;85;20210;-82
2023/02/21 09:41:43;;;;;;;;;;;;;;;9.96;66.47;98083.00;1671436;85;20209;-82
2023/02/21 09:44:48;;;;;;;;;;;;;;;9.98;65.76;98084.45;1682217;83;20605;-81
2023/02/21 09:47:52;;;;;;;;;;;;;;;9.92;65.09;98088.07;1672217;85;20228;-82
2023/02/21 09:51:03;;;;;;;;;;;;;;;9.79;64.89;98079.20;1666535;85;20234;-83
2023/02/21 09:54:07;;;;;;;;;;;;;;;9.65;64.77;98088.89;1674253;84;20186;-83
2023/02/21 09:57:12;;;;;;;;;;;;;;;9.47;65.81;98084.75;1665431;84;20225;-83
2023/02/21 10:00:24;;;;;;;;;;;;;;;9.48;64.23;98079.59;1665655;83;20585;-83
2023/02/21 10:03:49;;;;;;;;;;;;;;;9.38;63.46;98088.28;1680446;84;20610;-84
2023/02/21 10:07:06;;;;;;;;;;;;;;;9.47;63.42;98089.67;1690092;83;20245;-80
2023/02/21 10:10:34;;;;;;;;;;;;;;;9.33;63.72;98084.02;1696808;83;20213;-81
2023/02/21 10:13:45;;;;;;;;;;;;;;;9.23;65.25;98093.23;1604909;86;20185;-80
2023/02/21 10:16:53;;;;;;;;;;;;;;;9.16;65.74;98101.98;1679676;84;20201;-80
2023/02/21 10:20:01;;;;;;;;;;;;;;;9.23;65.85;98090.50;1696746;83;20215;-80
2023/02/21 10:23:07;;;;;;;;;;;;;;;9.30;65.89;98096.73;1702324;83;20230;-84
2023/02/21 10:26:15;;;;;;;;;;;;;;;9.45;66.34;98095.86;1665108;85;20239;-80
2023/02/21 10:29:26;;;;;;;;;;;;;;;9.60;67.26;98090.63;1656647;85;20221;-84
2023/02/21 10:32:31;;;;;;;;;;;;;;;9.78;65.96;98091.16;1685787;84;20194;-83
2023/02/21 10:35:35;;;;;;;;;;;;;;;9.76;65.17;98081.02;1699596;84;20673;-84
2023/02/21 10:38:40;;;;;;;;;;;;;;;9.72;65.09;98090.17;1673767;84;20672;-83
2023/02/21 10:41:46;;;;;;;;;;;;;;;9.73;64.69;98080.92;1661323;85;20608;-83
2023/02/21 10:44:50;;;;;;;;;;;;;;;9.78;64.86;98054.31;1669109;84;20619;-80
2023/02/21 10:48:08;;;;;;;;;;;;;;;9.75;64.61;98045.23;1681820;84;20305;-84
2023/02/21 10:51:18;;;;;;;;;;;;;;;9.67;63.41;98047.17;1700728;83;20193;-87
2023/02/21 10:54:27;;;;;;;;;;;;;;;9.57;62.54;98040.57;1697741;83;20629;-81
2023/02/21 10:57:31;;;;;;;;;;;;;;;9.41;60.92;98053.73;1703105;83;20195;-89
2023/02/21 11:00:46;;;;;;;;;;;;;;;9.36;61.08;98060.39;1664475;84;20450;-89
2023/02/21 11:03:56;;;;;;;;;;;;;;;9.29;61.92;98070.52;1674880;84;20195;-89
2023/02/21 11:07:08;;;;;;;;;;;;;;;9.24;62.38;98072.24;1673532;84;20178;-88
2023/02/21 11:10:31;;;;;;;;;;;;;;;9.28;62.89;98075.67;1670309;83;20688;-81
2023/02/21 11:13:36;;;;;;;;;;;;;;;9.45;63.23;98068.58;1669704;84;20206;-80
2023/02/21 11:16:41;;;;;;;;;;;;;;;9.54;63.33;98052.76;1705976;83;20188;-79
2023/02/21 11:19:51;;;;;;;;;;;;;;;9.50;64.41;98046.61;1695136;83;20217;-87
2023/02/21 11:22:49;;;;;;;;;;;;;;;9.56;64.91;98052.55;1695316;83;20705;-80
2023/02/21 11:25:46;;;;;;;;;;;;;;;9.69;65.62;98051.03;1694820;83;20505;-80
2023/02/21 11:28:31;;;;;;;;;;;;;;;9.87;66.22;98044.77;1702760;83;20217;-81
2023/02/21 11:31:35;;;;;;;;;;;;;;;10.07;65.29;98044.53;1665056;84;20602;-87
2023/02/21 11:34:20;;;;;;;;;;;;;;;10.03;64.66;98047.44;1671749;84;20194;-86
2023/02/21 11:37:13;;;;;;;;;;;;;;;10.21;64.72;98034.61;1666225;84;20644;-86
2023/02/21 11:39:59;;;;;;;;;;;;;;;10.36;64.65;98049.80;1686187;84;20210;-87
2023/02/21 11:42:52;;;;;;;;;;;;;;;10.46;63.09;98026.85;1671559;84;20194;-87
2023/02/21 11:45:39;;;;;;;;;;;;;;;10.40;63.03;98028.62;1694928;83;20193;-87
2023/02/21 11:48:33;;;;;;;;;;;;;;;10.49;60.81;98026.37;1700217;83;20169;-79
2023/02/21 11:51:47;;;;;;;;;;;;;;;10.46;57.65;98033.15;1702605;83;20181;-85
2023/02/21 11:54:53;;;;;;;;;;;;;;;10.37;58.42;98035.90;1682943;84;20222;-80
2023/02/21 11:58:28;;;;;;;;;;;;;;;10.38;57.84;98036.20;1685794;84;20603;-80
2023/02/21 12:01:55;;;;;;;;;;;;;;;10.30;58.76;98037.87;1685789;84;20258;-86
2023/02/21 12:05:26;;;;;;;;;;;;;;;10.41;59.46;98030.81;1670973;84;20508;-79
2023/02/21 12:08:42;;;;;;;;;;;;;;;10.65;60.97;98040.77;1707773;83;20227;-79
2023/02/21 12:12:03;;;;;;;;;;;;;;;10.83;57.86;98026.22;1623780;84;20209;-86
2023/02/21 12:15:28;;;;;;;;;;;;;;;10.75;56.67;98030.64;1651171;86;20234;-78
2023/02/21 12:18:40;;;;;;;;;;;;;;;10.67;54.99;98025.50;1657195;86;20209;-79
2023/02/21 12:21:49;;;;;;;;;;;;;;;10.80;55.64;98034.87;1645236;86;20217;-85
2023/02/21 12:25:01;;;;;;;;;;;;;;;10.64;55.95;98026.81;1653330;85;20228;-79
2023/02/21 12:28:12;;;;;;;;;;;;;;;10.74;56.94;98027.08;1625091;87;20217;-88
2023/02/21 12:31:25;;;;;;;;;;;;;;;10.71;59.35;98027.53;1657214;84;20646;-87
2023/02/21 12:34:51;;;;;;;;;;;;;;;10.95;59.77;98032.54;1679277;84;20237;-88
2023/02/21 12:38:03;;;;;;;;;;;;;;;10.92;57.20;98040.40;1685197;84;20234;-80
2023/02/21 12:41:18;;;;;;;;;;;;;;;10.84;56.79;98044.83;1683219;85;20192;-87
2023/02/21 12:44:31;;;;;;;;;;;;;;;10.70;57.14;98045.55;1677508;85;20206;-88
2023/02/21 12:48:01;;;;;;;;;;;;;;;10.53;55.74;98047.25;1680724;85;20230;-80
2023/02/21 12:51:09;;;;;;;;;;;;;;;10.51;54.54;98061.70;1685687;84;20213;-87
2023/02/21 12:54:19;;;;;;;;;;;;;;;10.40;55.74;98080.55;1686210;84;20216;-80
2023/02/21 12:57:40;;;;;;;;;;;;;;;10.34;54.82;98100.56;1680786;84;20230;-86
2023/02/21 13:01:01;;;;;;;;;;;;;;;10.40;57.84;98116.07;1685238;84;20619;-80
2023/02/21 13:04:39;;;;;;;;;;;;;;;10.07;60.69;98110.95;1676877;84;20222;-86
2023/02/21 13:07:52;;;;;;;;;;;;;;;9.75;61.16;98102.02;1712969;83;20217;-87
2023/02/21 13:11:14;;;;;;;;;;;;;;;9.47;62.34;98103.84;1699664;84;20588;-80
2023/02/21 13:14:23;;;;;;;;;;;;;;;9.32;63.57;98106.08;1700366;84;20213;-87
2023/02/21 13:17:26;;;;;;;;;;;;;;;9.20;63.49;98090.94;1680943;84;20233;-79
2023/02/21 13:20:32;;;;;;;;;;;;;;;9.15;62.13;98090.77;1664595;86;20695;-87
2023/02/21 13:23:56;;;;;;;;;;;;;;;9.25;62.23;98084.29;1670384;84;20197;-87
2023/02/21 13:27:10;;;;;;;;;;;;;;;9.32;62.85;98081.52;1670890;85;20637;-80
2023/02/21 13:30:25;;;;;;;;;;;;;;;9.30;62.84;98079.00;1666137;84;20229;-87
2023/02/21 13:33:42;;;;;;;;;;;;;;;9.39;60.64;98093.20;1711871;83;20618;-80
2023/02/21 13:36:48;;;;;;;;;;;;;;;9.46;59.81;98082.55;1697696;84;20260;-88
2023/02/21 13:40:06;;;;;;;;;;;;;;;9.51;58.04;98087.34;1699435;83;20601;-80
2023/02/21 13:43:10;;;;;;;;;;;;;;;9.62;56.99;98088.49;1698098;84;20259;-80
2023/02/21 13:46:39;;;;;;;;;;;;;;;9.62;57.09;98082.50;1661292;86;20220;-86
2023/02/21 13:49:49;;;;;;;;;;;;;;;9.59;57.08;98086.20;1686569;83;20621;-86
2023/02/21 13:52:59;;;;;;;;;;;;;;;9.63;57.26;98088.26;1662381;86;20256;-86
2023/02/21 13:56:16;;;;;;;;;;;;;;;9.48;58.32;98098.16;1665831;85;20241;-78
2023/02/21 13:59:33;;;;;;;;;;;;;;;9.42;59.91;98092.23;1665877;85;20204;-87
2023/02/21 14:02:39;;;;;;;;;;;;;;;9.37;61.82;98096.16;1664022;86;20216;-86
2023/02/21 14:05:55;;;;;;;;;;;;;;;9.22;62.98;98091.53;1630938;86;20220;-79
2023/02/21 14:09:05;;;;;;;;;;;;;;;9.12;64.13;98089.30;1663157;85;20220;-79
2023/02/21 14:12:11;;;;;;;;;;;;;;;8.76;65.45;98093.23;1669313;85;20229;-86
2023/02/21 14:15:15;;;;;;;;;;;;;;;8.57;66.46;98095.02;1702003;83;20205;-87
2023/02/21 14:18:34;;;;;;;;;;;;;;;8.23;69.01;98092.07;1702396;83;20655;-80
2023/02/21 14:21:53;;;;;;;;;;;;;;;8.05;70.06;98083.25;1702766;84;20625;-80
2023/02/21 14:24:58;;;;;;;;;;;;;;;7.93;71.58;98081.70;1702965;83;20226;-79
2023/02/21 14:28:03;;;;;;;;;;;;;;;8.00;72.37;98080.30;1702793;84;20189;-80
2023/02/21 14:31:10;;;;;;;;;;;;;;;8.01;73.29;98085.56;1703113;84;20557;-87
2023/02/21 14:34:17;;;;;;;;;;;;;;;8.06;74.03;98078.11;1702915;83;20613;-83
2023/02/21 14:37:38;;;;;;;;;;;;;;;7.97;74.41;98076.67;1673741;86;20203;-86
2023/02/21 14:40:52;;;;;;;;;;;;;;;7.78;75.13;98075.14;1716880;83;20607;-80
2023/02/21 14:44:00;;;;;;;;;;;;;;;7.75;75.51;98063.31;1702200;84;20637;-87
2023/02/21 14:47:15;;;;;;;;;;;;;;;7.75;75.66;98075.56;1669506;86;20225;-85
2023/02/21 14:50:43;;;;;;;;;;;;;;;7.60;76.02;98079.87;1687725;85;20185;-80
2023/02/21 14:54:03;;;;;;;;;;;;;;;7.56;76.50;98092.75;1702929;84;20196;-80
2023/02/21 14:57:21;;;;;;;;;;;;;;;7.38;77.48;98096.11;1669474;86;20181;-87
2023/02/21 15:00:49;;;;;;;;;;;;;;;7.19;78.46;98101.86;1673248;86;20692;-87
2023/02/21 15:04:05;;;;;;;;;;;;;;;7.16;78.87;98106.38;1702100;84;20209;-87
2023/02/21 15:07:10;;;;;;;;;;;;;;;7.07;79.32;98117.97;1701364;84;20241;-85
2023/02/21 15:10:23;;;;;;;;;;;;;;;7.06;79.34;98123.09;1701496;84;20188;-87
2023/02/21 15:13:33;;;;;;;;;;;;;;;6.91;80.26;98136.84;1672421;85;20222;-79
2023/02/21 15:16:37;;;;;;;;;;;;;;;6.78;80.64;98138.19;1673512;86;20234;-81
2023/02/21 15:19:42;;;;;;;;;;;;;;;6.75;80.52;98139.11;1701389;84;20225;-79
2023/02/21 15:22:48;;;;;;;;;;;;;;;6.67;80.34;98148.27;1672228;86;20198;-83
2023/02/21 15:26:01;;;;;;;;;;;;;;;6.60;80.17;98153.70;1673610;86;20230;-85
2023/02/21 15:29:22;;;;;;;;;;;;;;;6.55;79.76;98160.78;1703038;84;20225;-79
2023/02/21 15:32:26;;;;;;;;;;;;;;;6.60;79.12;98163.73;1673834;86;20205;-84
2023/02/21 15:35:34;;;;;;;;;;;;;;;6.37;79.36;98179.81;1673692;86;20201;-80
2023/02/21 15:38:48;;;;;;;;;;;;;;;6.13;80.33;98183.02;1702994;84;20225;-79
2023/02/21 15:41:58;;;;;;;;;;;;;;;6.06;80.60;98186.20;1669533;86;20592;-87
2023/02/21 15:45:08;;;;;;;;;;;;;;;6.19;80.02;98186.28;1669518;86;20247;-78
2023/02/21 15:48:12;;;;;;;;;;;;;;;6.06;79.91;98196.53;1673593;86;20193;-78
2023/02/21 15:51:16;;;;;;;;;;;;;;;6.11;79.59;98206.80;1673261;86;20198;-86
2023/02/21 15:54:30;;;;;;;;;;;;;;;6.03;79.71;98211.05;1701414;84;20620;-86
2023/02/21 15:57:33;;;;;;;;;;;;;;;6.00;79.90;98210.07;1654706;85;20182;-87
2023/02/21 16:00:46;;;;;;;;;;;;;;;5.79;80.76;98225.34;1662183;86;20254;-85
2023/02/21 16:03:52;;;;;;;;;;;;;;;5.79;81.16;98259.25;1661671;86;20257;-86
2023/02/21 16:07:01;;;;;;;;;;;;;;;5.97;81.44;98290.51;1662076;86;20617;-76
2023/02/21 16:10:09;;;;;;;;;;;;;;;5.89;84.06;98273.84;1661627;86;20226;-77
2023/02/21 16:13:14;;;;;;;;;;;;;;;5.84;86.42;98283.92;1661761;86;20206;-87
2023/02/21 16:16:19;;;;;;;;;;;;;;;5.72;87.22;98272.42;1660879;86;20605;-76
2023/02/21 16:19:26;;;;;;;;;;;;;;;5.71;87.31;98281.08;1661592;86;20624;-77
2023/02/21 16:22:36;;;;;;;;;;;;;;;5.66;87.42;98301.17;1686249;85;20221;-78
2023/02/21 16:25:45;;;;;;;;;;;;;;;5.66;87.41;98304.41;1686714;84;20201;-83
2023/02/21 16:28:50;;;;;;;;;;;;;;;5.54;87.94;98306.77;1682889;85;20247;-77
2023/02/21 16:31:56;;;;;;;;;;;;;;;5.56;88.29;98317.77;1683155;85;20194;-77
2023/02/21 16:35:01;;;;;;;;;;;;;;;5.50;88.61;98306.83;1682305;85;20222;-84
2023/02/21 16:38:08;;;;;;;;;;;;;;;5.53;88.31;98313.23;1683607;85;20617;-84
2023/02/21 16:41:14;;;;;;;;;;;;;;;5.54;88.03;98309.48;1683619;85;20581;-85
2023/02/21 16:44:18;;;;;;;;;;;;;;;5.64;87.00;98308.64;1683405;85;20190;-86
2023/02/21 16:47:24;;;;;;;;;;;;;;;5.62;86.95;98320.22;1683564;85;20198;-79
2023/02/21 16:50:35;;;;;;;;;;;;;;;5.39;88.22;98318.52;1682033;85;20198;-85
2023/02/21 16:53:38;;;;;;;;;;;;;;;5.07;90.31;98321.67;1684407;85;20452;-85
2023/02/21 16:56:43;;;;;;;;;;;;;;;5.11;90.26;98343.30;1689133;84;20269;-86
2023/02/21 16:59:47;;;;;;;;;;;;;;;5.18;90.25;98352.38;1695603;84;20174;-85
2023/02/21 17:02:54;;;;;;;;;;;;;;;5.24;90.27;98356.19;1694599;82;20233;-86
2023/02/21 17:05:59;;;;;;;;;;;;;;;5.30;90.07;98348.13;1696237;84;20246;-85
2023/02/21 17:09:03;;;;;;;;;;;;;;;5.28;90.04;98352.07;1695113;84;20197;-78
2023/02/21 17:12:07;;;;;;;;;;;;;;;5.31;89.35;98347.08;1696416;84;20169;-84
2023/02/21 17:15:13;;;;;;;;;;;;;;;5.27;88.68;98353.95;1692199;85;20185;-86
2023/02/21 17:18:18;;;;;;;;;;;;;;;5.22;88.62;98342.84;1692275;85;20193;-78
2023/02/21 17:21:23;;;;;;;;;;;;;;;5.21;87.90;98359.27;1692427;85;20197;-85
2023/02/21 17:24:28;;;;;;;;;;;;;;;5.35;86.86;98363.82;1691377;85;20680;-78
2023/02/21 17:27:34;;;;;;;;;;;;;;;5.41;86.13;98368.50;1692364;85;20226;-86
2023/02/21 17:30:39;;;;;;;;;;;;;;;5.46;85.60;98374.67;1691169;85;20218;-80
2023/02/21 17:33:43;;;;;;;;;;;;;;;5.04;86.84;98374.91;1691344;85;20586;-79
2023/02/21 17:36:48;;;;;;;;;;;;;;;5.14;86.51;98375.45;1692375;85;20198;-80
2023/02/21 17:39:59;;;;;;;;;;;;;;;4.97;86.75;98373.97;1691393;85;20214;-78
2023/02/21 17:43:08;;;;;;;;;;;;;;;4.91;86.82;98381.50;1692596;85;20218;-84
2023/02/21 17:46:04;;;;;;;;;;;;;;;4.90;86.78;98386.08;1692398;84;20217;-78
2023/02/21 17:49:07;;;;;;;;;;;;;;;4.83;86.48;98387.32;1692669;85;20197;-85
2023/02/21 17:52:14;;;;;;;;;;;;;;;4.82;86.28;98401.06;1692553;85;20218;-85
2023/02/21 17:55:20;;;;;;;;;;;;;;;4.46;87.50;98386.86;1692540;85;20558;-85
2023/02/21 17:58:24;;;;;;;;;;;;;;;4.51;87.63;98385.80;1691404;84;20182;-78
2023/02/21 18:01:28;;;;;;;;;;;;;;;4.50;87.46;98390.88;1692485;84;20597;-78
2023/02/21 18:04:32;;;;;;;;;;;;;;;4.43;87.43;98394.02;1691579;85;20193;-85
2023/02/21 18:07:36;;;;;;;;;;;;;;;4.35;87.61;98390.02;1692411;85;20193;-78
2023/02/21 18:10:35;;;;;;;;;;;;;;;4.35;87.38;98403.04;1692419;85;20221;-84
2023/02/21 18:13:39;;;;;;;;;;;;;;;4.34;87.28;98406.78;1691654;85;20225;-84
2023/02/21 18:16:43;;;;;;;;;;;;;;;4.36;87.12;98412.84;1691068;85;20218;-87
2023/02/21 18:19:49;;;;;;;;;;;;;;;4.28;87.43;98414.28;1691260;85;20177;-77
2023/02/21 18:22:54;;;;;;;;;;;;;;;4.38;87.07;98424.02;1692157;85;20177;-77
2023/02/21 18:25:59;;;;;;;;;;;;;;;4.40;86.85;98417.89;1692353;85;20197;-81
2023/02/21 18:29:04;;;;;;;;;;;;;;;4.48;86.74;98423.25;1691017;85;20221;-78
2023/02/21 18:32:09;;;;;;;;;;;;;;;4.54;86.47;98421.98;1692567;85;20214;-84
2023/02/21 18:35:14;;;;;;;;;;;;;;;4.78;85.88;98426.31;1692568;85;20205;-84
2023/02/21 18:38:19;;;;;;;;;;;;;;;4.86;85.37;98434.36;1692601;85;20626;-84